sensor_id;sensor_type;location;lat;lon;timestamp;P1;durP1;ratioP1;P2;durP2;ratioP2
46439;SDS011;32138;50.966;6.968;2023-06-10T00:00:28;9.70;;;8.63;;
46439;SDS011;32138;50.966;6.968;2023-06-10T00:01:30;10.05;;;8.88;;
46439;SDS011;32138;50.966;6.968;2023-06-10T00:02:31;11.02;;;8.27;;
46439;SDS011;32138;50.966;6.968;2023-06-10T00:03:32;11.43;;;8.57;;
46439;SDS011;32138;50.966;6.968;2023-06-10T00:04:32;9.98;;;8.68;;
46439;SDS011;32138;50.966;6.968;2023-06-10T00:05:34;9.15;;;8.30;;
46439;SDS011;32138;50.966;6.968;2023-06-10T00:06:36;8.77;;;7.88;;
46439;SDS011;32138;50.966;6.968;2023-06-10T00:07:36;9.98;;;8.95;;
46439;SDS011;32138;50.966;6.968;2023-06-10T00:08:38;9.65;;;8.63;;
46439;SDS011;32138;50.966;6.968;2023-06-10T00:09:39;9.48;;;8.57;;
46439;SDS011;32138;50.966;6.968;2023-06-10T00:10:40;10.50;;;8.13;;
46439;SDS011;32138;50.966;6.968;2023-06-10T00:11:42;10.25;;;8.60;;
46439;SDS011;32138;50.966;6.968;2023-06-10T00:12:42;10.60;;;8.98;;
46439;SDS011;32138;50.966;6.968;2023-06-10T00:13:43;10.23;;;8.80;;
46439;SDS011;32138;50.966;6.968;2023-06-10T00:14:44;8.90;;;8.07;;
46439;SDS011;32138;50.966;6.968;2023-06-10T00:15:45;9.10;;;8.05;;
46439;SDS011;32138;50.966;6.968;2023-06-10T00:16:46;9.02;;;8.13;;
46439;SDS011;32138;50.966;6.968;2023-06-10T00:17:46;10.05;;;8.50;;
46439;SDS011;32138;50.966;6.968;2023-06-10T00:18:48;10.35;;;9.23;;
46439;SDS011;32138;50.966;6.968;2023-06-10T00:19:51;9.45;;;8.55;;
46439;SDS011;32138;50.966;6.968;2023-06-10T00:20:53;10.98;;;8.52;;
46439;SDS011;32138;50.966;6.968;2023-06-10T00:21:55;11.50;;;9.30;;
46439;SDS011;32138;50.966;6.968;2023-06-10T00:22:57;9.52;;;8.60;;
46439;SDS011;32138;50.966;6.968;2023-06-10T00:24:01;10.90;;;9.40;;
46439;SDS011;32138;50.966;6.968;2023-06-10T00:25:05;9.85;;;8.82;;
46439;SDS011;32138;50.966;6.968;2023-06-10T00:26:07;10.00;;;8.90;;
46439;SDS011;32138;50.966;6.968;2023-06-10T00:27:08;9.73;;;8.35;;
46439;SDS011;32138;50.966;6.968;2023-06-10T00:28:09;9.50;;;8.55;;
46439;SDS011;32138;50.966;6.968;2023-06-10T00:29:10;9.55;;;8.60;;
46439;SDS011;32138;50.966;6.968;2023-06-10T00:30:11;9.45;;;8.55;;
46439;SDS011;32138;50.966;6.968;2023-06-10T00:31:12;10.93;;;9.00;;
46439;SDS011;32138;50.966;6.968;2023-06-10T00:32:13;9.65;;;8.60;;
46439;SDS011;32138;50.966;6.968;2023-06-10T00:33:13;10.68;;;9.57;;
46439;SDS011;32138;50.966;6.968;2023-06-10T00:34:15;10.63;;;9.10;;
46439;SDS011;32138;50.966;6.968;2023-06-10T00:35:15;10.02;;;9.05;;
46439;SDS011;32138;50.966;6.968;2023-06-10T00:36:16;9.88;;;8.75;;
46439;SDS011;32138;50.966;6.968;2023-06-10T00:37:17;10.55;;;9.07;;
46439;SDS011;32138;50.966;6.968;2023-06-10T00:38:18;11.00;;;9.38;;
46439;SDS011;32138;50.966;6.968;2023-06-10T00:39:18;10.80;;;9.75;;
46439;SDS011;32138;50.966;6.968;2023-06-10T00:40:19;10.68;;;8.18;;
46439;SDS011;32138;50.966;6.968;2023-06-10T00:41:20;11.05;;;9.25;;
46439;SDS011;32138;50.966;6.968;2023-06-10T00:42:20;9.23;;;8.32;;
46439;SDS011;32138;50.966;6.968;2023-06-10T00:43:24;12.77;;;9.40;;
46439;SDS011;32138;50.966;6.968;2023-06-10T00:44:24;9.65;;;8.63;;
46439;SDS011;32138;50.966;6.968;2023-06-10T00:45:25;9.70;;;8.70;;
46439;SDS011;32138;50.966;6.968;2023-06-10T00:46:26;13.57;;;9.43;;
46439;SDS011;32138;50.966;6.968;2023-06-10T00:47:27;11.95;;;8.80;;
46439;SDS011;32138;50.966;6.968;2023-06-10T00:48:28;10.15;;;8.98;;
46439;SDS011;32138;50.966;6.968;2023-06-10T00:49:29;10.23;;;8.95;;
46439;SDS011;32138;50.966;6.968;2023-06-10T00:50:30;10.38;;;9.05;;
46439;SDS011;32138;50.966;6.968;2023-06-10T00:51:31;12.65;;;9.40;;
46439;SDS011;32138;50.966;6.968;2023-06-10T00:52:32;10.27;;;9.05;;
46439;SDS011;32138;50.966;6.968;2023-06-10T00:53:35;11.27;;;9.30;;
46439;SDS011;32138;50.966;6.968;2023-06-10T00:54:39;9.02;;;8.13;;
46439;SDS011;32138;50.966;6.968;2023-06-10T00:55:40;11.10;;;8.75;;
46439;SDS011;32138;50.966;6.968;2023-06-10T00:56:41;10.18;;;9.25;;
46439;SDS011;32138;50.966;6.968;2023-06-10T00:57:44;9.95;;;8.98;;
46439;SDS011;32138;50.966;6.968;2023-06-10T00:58:48;12.23;;;9.57;;
46439;SDS011;32138;50.966;6.968;2023-06-10T00:59:49;10.32;;;9.32;;
46439;SDS011;32138;50.966;6.968;2023-06-10T01:00:50;10.65;;;9.55;;
46439;SDS011;32138;50.966;6.968;2023-06-10T01:01:51;11.02;;;9.93;;
46439;SDS011;32138;50.966;6.968;2023-06-10T01:02:52;9.85;;;8.90;;
46439;SDS011;32138;50.966;6.968;2023-06-10T01:03:53;11.57;;;8.55;;
46439;SDS011;32138;50.966;6.968;2023-06-10T01:04:54;10.38;;;9.27;;
46439;SDS011;32138;50.966;6.968;2023-06-10T01:06:00;10.13;;;9.07;;
46439;SDS011;32138;50.966;6.968;2023-06-10T01:08:57;9.57;;;8.68;;
46439;SDS011;32138;50.966;6.968;2023-06-10T01:10:11;9.75;;;8.85;;
46439;SDS011;32138;50.966;6.968;2023-06-10T01:11:28;9.82;;;8.95;;
46439;SDS011;32138;50.966;6.968;2023-06-10T01:14:02;11.48;;;9.32;;
46439;SDS011;32138;50.966;6.968;2023-06-10T01:15:05;10.32;;;8.50;;
46439;SDS011;32138;50.966;6.968;2023-06-10T01:16:08;9.75;;;8.70;;
46439;SDS011;32138;50.966;6.968;2023-06-10T01:17:10;9.85;;;8.85;;
46439;SDS011;32138;50.966;6.968;2023-06-10T01:18:11;10.50;;;9.23;;
46439;SDS011;32138;50.966;6.968;2023-06-10T01:19:15;11.38;;;8.98;;
46439;SDS011;32138;50.966;6.968;2023-06-10T01:20:17;10.45;;;9.45;;
46439;SDS011;32138;50.966;6.968;2023-06-10T01:21:27;8.52;;;7.72;;
46439;SDS011;32138;50.966;6.968;2023-06-10T01:22:27;10.07;;;9.18;;
46439;SDS011;32138;50.966;6.968;2023-06-10T01:23:28;10.30;;;9.32;;
46439;SDS011;32138;50.966;6.968;2023-06-10T01:24:29;9.88;;;8.88;;
46439;SDS011;32138;50.966;6.968;2023-06-10T01:25:36;10.77;;;9.50;;
46439;SDS011;32138;50.966;6.968;2023-06-10T01:26:40;10.88;;;9.40;;
46439;SDS011;32138;50.966;6.968;2023-06-10T01:27:42;12.00;;;10.13;;
46439;SDS011;32138;50.966;6.968;2023-06-10T01:28:47;11.20;;;9.93;;
46439;SDS011;32138;50.966;6.968;2023-06-10T01:29:59;11.18;;;10.07;;
46439;SDS011;32138;50.966;6.968;2023-06-10T01:31:18;11.63;;;10.32;;
46439;SDS011;32138;50.966;6.968;2023-06-10T01:32:34;11.10;;;10.05;;
46439;SDS011;32138;50.966;6.968;2023-06-10T01:33:45;12.32;;;9.55;;
46439;SDS011;32138;50.966;6.968;2023-06-10T01:34:48;12.80;;;9.55;;
46439;SDS011;32138;50.966;6.968;2023-06-10T01:35:50;10.85;;;9.43;;
46439;SDS011;32138;50.966;6.968;2023-06-10T01:36:51;11.80;;;10.70;;
46439;SDS011;32138;50.966;6.968;2023-06-10T01:37:54;10.27;;;9.38;;
46439;SDS011;32138;50.966;6.968;2023-06-10T01:38:56;11.93;;;10.73;;
46439;SDS011;32138;50.966;6.968;2023-06-10T01:39:59;10.80;;;9.70;;
46439;SDS011;32138;50.966;6.968;2023-06-10T01:41:05;10.65;;;9.50;;
46439;SDS011;32138;50.966;6.968;2023-06-10T01:42:07;11.30;;;9.88;;
46439;SDS011;32138;50.966;6.968;2023-06-10T01:43:10;13.90;;;10.50;;
46439;SDS011;32138;50.966;6.968;2023-06-10T01:44:10;12.13;;;10.38;;
46439;SDS011;32138;50.966;6.968;2023-06-10T01:45:12;11.48;;;9.88;;
46439;SDS011;32138;50.966;6.968;2023-06-10T01:46:13;10.25;;;9.25;;
46439;SDS011;32138;50.966;6.968;2023-06-10T01:47:15;11.13;;;9.95;;
46439;SDS011;32138;50.966;6.968;2023-06-10T01:48:16;10.48;;;9.48;;
46439;SDS011;32138;50.966;6.968;2023-06-10T01:49:17;10.48;;;9.50;;
46439;SDS011;32138;50.966;6.968;2023-06-10T01:50:17;10.40;;;9.43;;
46439;SDS011;32138;50.966;6.968;2023-06-10T01:51:18;10.45;;;9.50;;
46439;SDS011;32138;50.966;6.968;2023-06-10T01:52:19;10.90;;;9.70;;
46439;SDS011;32138;50.966;6.968;2023-06-10T01:53:20;10.32;;;9.30;;
46439;SDS011;32138;50.966;6.968;2023-06-10T01:54:21;10.93;;;9.80;;
46439;SDS011;32138;50.966;6.968;2023-06-10T01:55:21;10.23;;;9.15;;
46439;SDS011;32138;50.966;6.968;2023-06-10T01:56:22;10.27;;;9.27;;
46439;SDS011;32138;50.966;6.968;2023-06-10T01:57:23;11.60;;;10.10;;
46439;SDS011;32138;50.966;6.968;2023-06-10T01:58:24;11.48;;;10.07;;
46439;SDS011;32138;50.966;6.968;2023-06-10T01:59:25;12.00;;;9.73;;
46439;SDS011;32138;50.966;6.968;2023-06-10T02:00:25;13.45;;;10.18;;
46439;SDS011;32138;50.966;6.968;2023-06-10T02:01:26;13.60;;;9.45;;
46439;SDS011;32138;50.966;6.968;2023-06-10T02:02:27;11.27;;;9.13;;
46439;SDS011;32138;50.966;6.968;2023-06-10T02:03:28;11.20;;;8.95;;
46439;SDS011;32138;50.966;6.968;2023-06-10T02:04:29;12.65;;;9.85;;
46439;SDS011;32138;50.966;6.968;2023-06-10T02:05:29;11.07;;;9.23;;
46439;SDS011;32138;50.966;6.968;2023-06-10T02:06:30;11.68;;;10.52;;
46439;SDS011;32138;50.966;6.968;2023-06-10T02:07:31;10.38;;;9.38;;
46439;SDS011;32138;50.966;6.968;2023-06-10T02:08:31;10.82;;;9.88;;
46439;SDS011;32138;50.966;6.968;2023-06-10T02:09:32;11.02;;;9.93;;
46439;SDS011;32138;50.966;6.968;2023-06-10T02:10:35;12.43;;;10.25;;
46439;SDS011;32138;50.966;6.968;2023-06-10T02:11:36;10.57;;;9.45;;
46439;SDS011;32138;50.966;6.968;2023-06-10T02:12:37;10.90;;;9.88;;
46439;SDS011;32138;50.966;6.968;2023-06-10T02:13:38;11.40;;;9.70;;
46439;SDS011;32138;50.966;6.968;2023-06-10T02:14:39;10.75;;;9.65;;
46439;SDS011;32138;50.966;6.968;2023-06-10T02:15:39;11.30;;;9.88;;
46439;SDS011;32138;50.966;6.968;2023-06-10T02:16:40;11.70;;;10.60;;
46439;SDS011;32138;50.966;6.968;2023-06-10T02:17:41;10.77;;;9.60;;
46439;SDS011;32138;50.966;6.968;2023-06-10T02:18:43;10.60;;;9.57;;
46439;SDS011;32138;50.966;6.968;2023-06-10T02:19:44;11.30;;;10.25;;
46439;SDS011;32138;50.966;6.968;2023-06-10T02:20:52;11.60;;;9.40;;
46439;SDS011;32138;50.966;6.968;2023-06-10T02:21:53;10.50;;;9.43;;
46439;SDS011;32138;50.966;6.968;2023-06-10T02:22:54;10.65;;;9.55;;
46439;SDS011;32138;50.966;6.968;2023-06-10T02:23:55;10.07;;;8.93;;
46439;SDS011;32138;50.966;6.968;2023-06-10T02:24:56;9.98;;;9.05;;
46439;SDS011;32138;50.966;6.968;2023-06-10T02:25:56;10.13;;;8.82;;
46439;SDS011;32138;50.966;6.968;2023-06-10T02:26:57;10.18;;;9.18;;
46439;SDS011;32138;50.966;6.968;2023-06-10T02:28:00;12.25;;;10.23;;
46439;SDS011;32138;50.966;6.968;2023-06-10T02:29:03;9.85;;;8.85;;
46439;SDS011;32138;50.966;6.968;2023-06-10T02:30:04;9.98;;;8.98;;
46439;SDS011;32138;50.966;6.968;2023-06-10T02:31:05;11.57;;;10.45;;
46439;SDS011;32138;50.966;6.968;2023-06-10T02:32:07;10.35;;;9.32;;
46439;SDS011;32138;50.966;6.968;2023-06-10T02:33:08;10.88;;;9.77;;
46439;SDS011;32138;50.966;6.968;2023-06-10T02:34:12;10.75;;;9.75;;
46439;SDS011;32138;50.966;6.968;2023-06-10T02:35:14;11.88;;;10.60;;
46439;SDS011;32138;50.966;6.968;2023-06-10T02:36:15;14.70;;;10.63;;
46439;SDS011;32138;50.966;6.968;2023-06-10T02:37:16;12.05;;;10.80;;
46439;SDS011;32138;50.966;6.968;2023-06-10T02:38:17;12.18;;;10.50;;
46439;SDS011;32138;50.966;6.968;2023-06-10T02:39:18;11.43;;;10.30;;
46439;SDS011;32138;50.966;6.968;2023-06-10T02:40:18;12.80;;;10.30;;
46439;SDS011;32138;50.966;6.968;2023-06-10T02:41:20;11.30;;;10.20;;
46439;SDS011;32138;50.966;6.968;2023-06-10T02:42:21;12.93;;;10.40;;
46439;SDS011;32138;50.966;6.968;2023-06-10T02:43:22;12.63;;;11.30;;
46439;SDS011;32138;50.966;6.968;2023-06-10T02:44:23;11.50;;;10.32;;
46439;SDS011;32138;50.966;6.968;2023-06-10T02:45:24;10.40;;;9.35;;
46439;SDS011;32138;50.966;6.968;2023-06-10T02:46:25;11.27;;;9.93;;
46439;SDS011;32138;50.966;6.968;2023-06-10T02:47:25;12.00;;;10.70;;
46439;SDS011;32138;50.966;6.968;2023-06-10T02:48:26;11.00;;;9.90;;
46439;SDS011;32138;50.966;6.968;2023-06-10T02:49:28;10.25;;;9.35;;
46439;SDS011;32138;50.966;6.968;2023-06-10T02:50:28;10.85;;;9.85;;
46439;SDS011;32138;50.966;6.968;2023-06-10T02:51:29;11.60;;;10.45;;
46439;SDS011;32138;50.966;6.968;2023-06-10T02:52:30;11.60;;;10.40;;
46439;SDS011;32138;50.966;6.968;2023-06-10T02:53:31;11.52;;;10.32;;
46439;SDS011;32138;50.966;6.968;2023-06-10T02:54:32;12.00;;;10.80;;
46439;SDS011;32138;50.966;6.968;2023-06-10T02:55:32;11.82;;;10.55;;
46439;SDS011;32138;50.966;6.968;2023-06-10T02:56:35;11.43;;;9.90;;
46439;SDS011;32138;50.966;6.968;2023-06-10T02:57:36;13.35;;;10.98;;
46439;SDS011;32138;50.966;6.968;2023-06-10T02:58:37;12.68;;;10.63;;
46439;SDS011;32138;50.966;6.968;2023-06-10T02:59:38;12.15;;;10.95;;
46439;SDS011;32138;50.966;6.968;2023-06-10T03:00:38;11.25;;;9.82;;
46439;SDS011;32138;50.966;6.968;2023-06-10T03:01:41;11.70;;;10.60;;
46439;SDS011;32138;50.966;6.968;2023-06-10T03:02:42;11.63;;;10.45;;
46439;SDS011;32138;50.966;6.968;2023-06-10T03:03:45;12.45;;;11.18;;
46439;SDS011;32138;50.966;6.968;2023-06-10T03:04:47;11.57;;;10.48;;
46439;SDS011;32138;50.966;6.968;2023-06-10T03:05:50;14.32;;;10.90;;
46439;SDS011;32138;50.966;6.968;2023-06-10T03:06:51;11.88;;;10.70;;
46439;SDS011;32138;50.966;6.968;2023-06-10T03:07:52;10.98;;;10.07;;
46439;SDS011;32138;50.966;6.968;2023-06-10T03:08:52;11.70;;;10.63;;
46439;SDS011;32138;50.966;6.968;2023-06-10T03:09:53;11.88;;;10.75;;
46439;SDS011;32138;50.966;6.968;2023-06-10T03:10:54;11.45;;;10.43;;
46439;SDS011;32138;50.966;6.968;2023-06-10T03:11:55;11.63;;;10.63;;
46439;SDS011;32138;50.966;6.968;2023-06-10T03:12:55;13.30;;;10.70;;
46439;SDS011;32138;50.966;6.968;2023-06-10T03:13:57;12.27;;;11.00;;
46439;SDS011;32138;50.966;6.968;2023-06-10T03:14:57;12.15;;;10.90;;
46439;SDS011;32138;50.966;6.968;2023-06-10T03:15:58;11.02;;;9.88;;
46439;SDS011;32138;50.966;6.968;2023-06-10T03:16:59;12.05;;;10.85;;
46439;SDS011;32138;50.966;6.968;2023-06-10T03:18:00;12.50;;;11.18;;
46439;SDS011;32138;50.966;6.968;2023-06-10T03:19:02;11.73;;;10.60;;
46439;SDS011;32138;50.966;6.968;2023-06-10T03:20:03;13.55;;;10.45;;
46439;SDS011;32138;50.966;6.968;2023-06-10T03:21:08;12.98;;;11.15;;
46439;SDS011;32138;50.966;6.968;2023-06-10T03:22:14;13.23;;;11.30;;
46439;SDS011;32138;50.966;6.968;2023-06-10T03:23:16;12.18;;;11.15;;
46439;SDS011;32138;50.966;6.968;2023-06-10T03:24:17;11.73;;;10.63;;
46439;SDS011;32138;50.966;6.968;2023-06-10T03:25:17;12.05;;;10.82;;
46439;SDS011;32138;50.966;6.968;2023-06-10T03:26:20;11.25;;;10.25;;
46439;SDS011;32138;50.966;6.968;2023-06-10T03:27:21;12.57;;;11.27;;
46439;SDS011;32138;50.966;6.968;2023-06-10T03:28:22;12.35;;;11.15;;
46439;SDS011;32138;50.966;6.968;2023-06-10T03:29:23;12.80;;;11.02;;
46439;SDS011;32138;50.966;6.968;2023-06-10T03:30:23;13.95;;;11.05;;
46439;SDS011;32138;50.966;6.968;2023-06-10T03:31:24;13.60;;;12.23;;
46439;SDS011;32138;50.966;6.968;2023-06-10T03:32:25;11.93;;;10.68;;
46439;SDS011;32138;50.966;6.968;2023-06-10T03:33:25;13.07;;;11.55;;
46439;SDS011;32138;50.966;6.968;2023-06-10T03:34:26;11.82;;;10.60;;
46439;SDS011;32138;50.966;6.968;2023-06-10T03:35:27;12.60;;;11.38;;
46439;SDS011;32138;50.966;6.968;2023-06-10T03:36:29;13.13;;;11.82;;
46439;SDS011;32138;50.966;6.968;2023-06-10T03:37:30;11.63;;;10.50;;
46439;SDS011;32138;50.966;6.968;2023-06-10T03:38:30;12.98;;;11.77;;
46439;SDS011;32138;50.966;6.968;2023-06-10T03:39:32;12.35;;;11.25;;
46439;SDS011;32138;50.966;6.968;2023-06-10T03:40:33;14.35;;;12.40;;
46439;SDS011;32138;50.966;6.968;2023-06-10T03:41:33;12.55;;;11.27;;
46439;SDS011;32138;50.966;6.968;2023-06-10T03:42:34;11.95;;;10.73;;
46439;SDS011;32138;50.966;6.968;2023-06-10T03:43:35;11.23;;;10.18;;
46439;SDS011;32138;50.966;6.968;2023-06-10T03:44:38;12.98;;;11.63;;
46439;SDS011;32138;50.966;6.968;2023-06-10T03:45:40;13.18;;;11.77;;
46439;SDS011;32138;50.966;6.968;2023-06-10T03:46:41;12.88;;;11.43;;
46439;SDS011;32138;50.966;6.968;2023-06-10T03:47:42;12.63;;;11.48;;
46439;SDS011;32138;50.966;6.968;2023-06-10T03:48:43;12.35;;;11.18;;
46439;SDS011;32138;50.966;6.968;2023-06-10T03:49:44;12.77;;;11.00;;
46439;SDS011;32138;50.966;6.968;2023-06-10T03:50:45;12.40;;;10.90;;
46439;SDS011;32138;50.966;6.968;2023-06-10T03:51:47;12.10;;;10.90;;
46439;SDS011;32138;50.966;6.968;2023-06-10T03:52:48;12.98;;;11.18;;
46439;SDS011;32138;50.966;6.968;2023-06-10T03:53:49;12.30;;;11.10;;
46439;SDS011;32138;50.966;6.968;2023-06-10T03:54:49;13.75;;;11.55;;
46439;SDS011;32138;50.966;6.968;2023-06-10T03:55:50;13.02;;;10.95;;
46439;SDS011;32138;50.966;6.968;2023-06-10T03:56:51;11.93;;;10.70;;
46439;SDS011;32138;50.966;6.968;2023-06-10T03:57:52;12.40;;;11.20;;
46439;SDS011;32138;50.966;6.968;2023-06-10T03:58:53;12.10;;;10.90;;
46439;SDS011;32138;50.966;6.968;2023-06-10T03:59:54;13.13;;;11.75;;
46439;SDS011;32138;50.966;6.968;2023-06-10T04:00:56;12.15;;;11.02;;
46439;SDS011;32138;50.966;6.968;2023-06-10T04:01:57;11.50;;;10.48;;
46439;SDS011;32138;50.966;6.968;2023-06-10T04:02:58;15.55;;;10.98;;
46439;SDS011;32138;50.966;6.968;2023-06-10T04:03:58;15.00;;;12.27;;
46439;SDS011;32138;50.966;6.968;2023-06-10T04:05:01;13.30;;;12.00;;
46439;SDS011;32138;50.966;6.968;2023-06-10T04:06:02;14.18;;;12.07;;
46439;SDS011;32138;50.966;6.968;2023-06-10T04:07:03;13.55;;;12.27;;
46439;SDS011;32138;50.966;6.968;2023-06-10T04:08:05;14.05;;;11.18;;
46439;SDS011;32138;50.966;6.968;2023-06-10T04:09:06;15.00;;;12.52;;
46439;SDS011;32138;50.966;6.968;2023-06-10T04:10:08;13.65;;;12.20;;
46439;SDS011;32138;50.966;6.968;2023-06-10T04:11:10;14.05;;;12.65;;
46439;SDS011;32138;50.966;6.968;2023-06-10T04:12:11;13.23;;;11.93;;
46439;SDS011;32138;50.966;6.968;2023-06-10T04:13:12;13.80;;;11.02;;
46439;SDS011;32138;50.966;6.968;2023-06-10T04:14:14;13.75;;;12.35;;
46439;SDS011;32138;50.966;6.968;2023-06-10T04:15:15;14.68;;;11.95;;
46439;SDS011;32138;50.966;6.968;2023-06-10T04:16:15;13.68;;;11.68;;
46439;SDS011;32138;50.966;6.968;2023-06-10T04:17:16;12.98;;;11.73;;
46439;SDS011;32138;50.966;6.968;2023-06-10T04:18:17;13.15;;;11.77;;
46439;SDS011;32138;50.966;6.968;2023-06-10T04:19:18;12.13;;;11.02;;
46439;SDS011;32138;50.966;6.968;2023-06-10T04:20:19;13.10;;;11.80;;
46439;SDS011;32138;50.966;6.968;2023-06-10T04:21:20;14.65;;;13.15;;
46439;SDS011;32138;50.966;6.968;2023-06-10T04:22:21;16.48;;;13.48;;
46439;SDS011;32138;50.966;6.968;2023-06-10T04:23:22;15.20;;;12.73;;
46439;SDS011;32138;50.966;6.968;2023-06-10T04:24:23;13.50;;;11.48;;
46439;SDS011;32138;50.966;6.968;2023-06-10T04:25:24;13.18;;;11.68;;
46439;SDS011;32138;50.966;6.968;2023-06-10T04:26:26;13.35;;;12.05;;
46439;SDS011;32138;50.966;6.968;2023-06-10T04:27:27;12.88;;;11.57;;
46439;SDS011;32138;50.966;6.968;2023-06-10T04:28:29;13.43;;;12.10;;
46439;SDS011;32138;50.966;6.968;2023-06-10T04:29:30;13.38;;;11.45;;
46439;SDS011;32138;50.966;6.968;2023-06-10T04:30:30;12.98;;;11.57;;
46439;SDS011;32138;50.966;6.968;2023-06-10T04:31:31;12.95;;;11.68;;
46439;SDS011;32138;50.966;6.968;2023-06-10T04:32:32;14.63;;;11.95;;
46439;SDS011;32138;50.966;6.968;2023-06-10T04:33:33;13.68;;;12.38;;
46439;SDS011;32138;50.966;6.968;2023-06-10T04:34:33;13.02;;;11.60;;
46439;SDS011;32138;50.966;6.968;2023-06-10T04:35:34;12.98;;;11.68;;
46439;SDS011;32138;50.966;6.968;2023-06-10T04:36:35;13.15;;;11.57;;
46439;SDS011;32138;50.966;6.968;2023-06-10T04:37:36;12.52;;;11.23;;
46439;SDS011;32138;50.966;6.968;2023-06-10T04:38:37;12.85;;;11.75;;
46439;SDS011;32138;50.966;6.968;2023-06-10T04:39:37;13.05;;;11.75;;
46439;SDS011;32138;50.966;6.968;2023-06-10T04:40:38;12.75;;;11.45;;
46439;SDS011;32138;50.966;6.968;2023-06-10T04:41:39;15.10;;;12.30;;
46439;SDS011;32138;50.966;6.968;2023-06-10T04:42:40;12.63;;;11.43;;
46439;SDS011;32138;50.966;6.968;2023-06-10T04:43:40;12.73;;;11.50;;
46439;SDS011;32138;50.966;6.968;2023-06-10T04:44:41;12.25;;;11.15;;
46439;SDS011;32138;50.966;6.968;2023-06-10T04:45:42;13.85;;;11.98;;
46439;SDS011;32138;50.966;6.968;2023-06-10T04:46:44;13.82;;;11.60;;
46439;SDS011;32138;50.966;6.968;2023-06-10T04:47:45;12.50;;;11.35;;
46439;SDS011;32138;50.966;6.968;2023-06-10T04:48:46;13.20;;;11.88;;
46439;SDS011;32138;50.966;6.968;2023-06-10T04:49:47;13.20;;;11.90;;
46439;SDS011;32138;50.966;6.968;2023-06-10T04:50:47;14.40;;;11.70;;
46439;SDS011;32138;50.966;6.968;2023-06-10T04:51:48;12.32;;;11.13;;
46439;SDS011;32138;50.966;6.968;2023-06-10T04:52:49;14.07;;;12.35;;
46439;SDS011;32138;50.966;6.968;2023-06-10T04:53:50;13.32;;;11.93;;
46439;SDS011;32138;50.966;6.968;2023-06-10T04:54:51;13.55;;;12.27;;
46439;SDS011;32138;50.966;6.968;2023-06-10T04:55:52;16.80;;;13.70;;
46439;SDS011;32138;50.966;6.968;2023-06-10T04:56:52;13.75;;;12.48;;
46439;SDS011;32138;50.966;6.968;2023-06-10T04:57:54;13.68;;;12.15;;
46439;SDS011;32138;50.966;6.968;2023-06-10T04:58:58;14.90;;;12.88;;
46439;SDS011;32138;50.966;6.968;2023-06-10T05:00:00;12.73;;;11.43;;
46439;SDS011;32138;50.966;6.968;2023-06-10T05:01:00;12.75;;;11.45;;
46439;SDS011;32138;50.966;6.968;2023-06-10T05:02:02;13.13;;;11.73;;
46439;SDS011;32138;50.966;6.968;2023-06-10T05:03:03;13.27;;;11.35;;
46439;SDS011;32138;50.966;6.968;2023-06-10T05:04:04;15.40;;;12.95;;
46439;SDS011;32138;50.966;6.968;2023-06-10T05:05:05;14.13;;;12.73;;
46439;SDS011;32138;50.966;6.968;2023-06-10T05:06:06;13.90;;;11.80;;
46439;SDS011;32138;50.966;6.968;2023-06-10T05:07:07;13.60;;;12.20;;
46439;SDS011;32138;50.966;6.968;2023-06-10T05:08:07;12.48;;;11.38;;
46439;SDS011;32138;50.966;6.968;2023-06-10T05:09:09;12.90;;;11.45;;
46439;SDS011;32138;50.966;6.968;2023-06-10T05:10:10;13.70;;;12.40;;
46439;SDS011;32138;50.966;6.968;2023-06-10T05:11:12;13.05;;;11.55;;
46439;SDS011;32138;50.966;6.968;2023-06-10T05:12:12;12.93;;;11.43;;
46439;SDS011;32138;50.966;6.968;2023-06-10T05:13:13;16.83;;;15.07;;
46439;SDS011;32138;50.966;6.968;2023-06-10T05:14:14;37.22;;;33.22;;
46439;SDS011;32138;50.966;6.968;2023-06-10T05:15:16;114.68;;;101.25;;
46439;SDS011;32138;50.966;6.968;2023-06-10T05:16:17;71.45;;;63.70;;
46439;SDS011;32138;50.966;6.968;2023-06-10T05:17:18;48.85;;;43.58;;
46439;SDS011;32138;50.966;6.968;2023-06-10T05:18:19;81.38;;;72.57;;
46439;SDS011;32138;50.966;6.968;2023-06-10T05:19:19;82.88;;;74.18;;
46439;SDS011;32138;50.966;6.968;2023-06-10T05:20:21;42.25;;;37.85;;
46439;SDS011;32138;50.966;6.968;2023-06-10T05:21:21;31.30;;;26.60;;
46439;SDS011;32138;50.966;6.968;2023-06-10T05:22:22;20.90;;;18.80;;
46439;SDS011;32138;50.966;6.968;2023-06-10T05:23:27;20.98;;;16.20;;
46439;SDS011;32138;50.966;6.968;2023-06-10T05:24:28;15.68;;;13.93;;
46439;SDS011;32138;50.966;6.968;2023-06-10T05:25:32;14.20;;;12.90;;
46439;SDS011;32138;50.966;6.968;2023-06-10T05:26:33;13.90;;;12.43;;
46439;SDS011;32138;50.966;6.968;2023-06-10T05:27:37;13.57;;;12.18;;
46439;SDS011;32138;50.966;6.968;2023-06-10T05:28:40;13.20;;;11.88;;
46439;SDS011;32138;50.966;6.968;2023-06-10T05:29:41;14.25;;;12.75;;
46439;SDS011;32138;50.966;6.968;2023-06-10T05:30:43;15.15;;;13.57;;
46439;SDS011;32138;50.966;6.968;2023-06-10T05:31:43;14.73;;;13.18;;
46439;SDS011;32138;50.966;6.968;2023-06-10T05:32:44;14.73;;;13.23;;
46439;SDS011;32138;50.966;6.968;2023-06-10T05:33:45;15.15;;;13.15;;
46439;SDS011;32138;50.966;6.968;2023-06-10T05:34:46;15.02;;;12.25;;
46439;SDS011;32138;50.966;6.968;2023-06-10T05:35:46;12.52;;;11.25;;
46439;SDS011;32138;50.966;6.968;2023-06-10T05:36:47;13.43;;;11.77;;
46439;SDS011;32138;50.966;6.968;2023-06-10T05:37:48;13.15;;;11.80;;
46439;SDS011;32138;50.966;6.968;2023-06-10T05:38:49;13.15;;;11.95;;
46439;SDS011;32138;50.966;6.968;2023-06-10T05:39:49;17.38;;;12.60;;
46439;SDS011;32138;50.966;6.968;2023-06-10T05:40:50;14.32;;;12.35;;
46439;SDS011;32138;50.966;6.968;2023-06-10T05:41:51;14.20;;;11.88;;
46439;SDS011;32138;50.966;6.968;2023-06-10T05:42:52;12.75;;;10.80;;
46439;SDS011;32138;50.966;6.968;2023-06-10T05:43:53;13.98;;;12.20;;
46439;SDS011;32138;50.966;6.968;2023-06-10T05:44:54;13.55;;;12.15;;
46439;SDS011;32138;50.966;6.968;2023-06-10T05:45:54;13.73;;;12.30;;
46439;SDS011;32138;50.966;6.968;2023-06-10T05:46:55;12.68;;;11.38;;
46439;SDS011;32138;50.966;6.968;2023-06-10T05:47:56;14.82;;;11.98;;
46439;SDS011;32138;50.966;6.968;2023-06-10T05:48:57;13.57;;;12.18;;
46439;SDS011;32138;50.966;6.968;2023-06-10T05:49:58;13.27;;;11.82;;
46439;SDS011;32138;50.966;6.968;2023-06-10T05:50:58;11.90;;;10.70;;
46439;SDS011;32138;50.966;6.968;2023-06-10T05:52:00;12.13;;;10.73;;
46439;SDS011;32138;50.966;6.968;2023-06-10T05:53:00;13.38;;;10.75;;
46439;SDS011;32138;50.966;6.968;2023-06-10T05:54:01;12.38;;;10.82;;
46439;SDS011;32138;50.966;6.968;2023-06-10T05:55:02;15.95;;;10.55;;
46439;SDS011;32138;50.966;6.968;2023-06-10T05:56:03;13.20;;;10.93;;
46439;SDS011;32138;50.966;6.968;2023-06-10T05:57:04;12.80;;;10.25;;
46439;SDS011;32138;50.966;6.968;2023-06-10T05:58:05;15.75;;;11.00;;
46439;SDS011;32138;50.966;6.968;2023-06-10T05:59:06;13.73;;;9.70;;
46439;SDS011;32138;50.966;6.968;2023-06-10T06:00:07;13.57;;;12.18;;
46439;SDS011;32138;50.966;6.968;2023-06-10T06:01:09;58.85;;;52.67;;
46439;SDS011;32138;50.966;6.968;2023-06-10T06:02:09;166.93;;;150.23;;
46439;SDS011;32138;50.966;6.968;2023-06-10T06:03:11;157.40;;;141.50;;
46439;SDS011;32138;50.966;6.968;2023-06-10T06:04:12;58.83;;;52.60;;
46439;SDS011;32138;50.966;6.968;2023-06-10T06:05:12;30.45;;;27.38;;
46439;SDS011;32138;50.966;6.968;2023-06-10T06:06:13;35.28;;;31.77;;